Latest Weather Observations for Devonport Airport

IDT60801

Issued at 10:05 am EST Wednesday 24 September 2014 (issued every 30 minutes, with the page automatically refreshed every 10 minutes)

About weather observations | Map of weather stations | Latest weather observations for TAS | Other Formats
Station Details ID: 091126 Name: DEVONPORT AIRPORT Lat: -41.17 Lon: 146.43 Height: 8.0 m
Data from the previous 72 hours. | See also: Recent months at Devonport Airport
Date/Time
EST
Temp
°C
App
Temp
°C
Dew
Point
Rel
Hum
%
Delta-T
°C
Wind Press
QNH
hPa
Press
MSL
hPa
Rain
since 9 am
mm
Dir
 
Spd
km/h
Gust
km/h
Spd
kts
Gust
kts
24/10:00am 13.5 11.4 11.2 86 1.2 SE 13 17 7 9 1016.9 1017.0 0.0
24/09:30am 13.2 11.4 10.9 86 1.2 SSE 11 13 6 7 1017.4 1017.5 0.0
24/09:00am 13.3 12.2 12.0 92 0.7 S 9 13 5 7 1017.8 1017.9 0.0
24/08:30am 11.8 10.0 10.9 94 0.5 S 11 15 6 8 1018.3 1018.3 0.0
24/08:00am 11.2 8.5 10.4 95 0.4 S 15 17 8 9 1017.8 1017.9 0.0
24/07:30am 10.7 8.3 10.1 96 0.3 S 13 17 7 9 1017.8 1017.9 0.0
24/07:00am 9.6 7.7 9.0 96 0.3 S 9 11 5 6 1018.2 1018.2 0.0
24/06:30am 9.2 6.8 8.7 97 0.2 SSE 11 15 6 8 1018.3 1018.3 0.0
24/06:00am 9.0 6.6 8.5 97 0.2 S 11 15 6 8 1018.3 1018.3 0.0
24/05:30am 9.1 6.7 8.6 97 0.2 S 11 17 6 9 1018.8 1018.8 0.0
24/05:00am 8.9 6.1 8.5 97 0.2 S 13 19 7 10 1018.7 1018.7 0.0
24/04:30am 9.0 5.8 8.5 97 0.2 S 15 20 8 11 1018.8 1018.8 0.0
24/04:06am 8.7 6.2 8.3 97 0.2 S 11 15 6 8 1018.9 1018.9 0.0
24/04:02am 8.8 6.0 8.4 97 0.2 S 13 15 7 8 1019.0 1019.0 0.0
24/04:00am 8.9 6.1 8.5 97 0.2 S 13 15 7 8 1019.1 1019.1 0.0
24/03:40am 9.2 6.1 8.7 97 0.2 S 15 20 8 11 1019.3 1019.3 0.0
24/03:30am 9.3 5.8 8.8 97 0.2 S 17 19 9 10 1019.5 1019.5 0.0
24/03:00am 9.3 5.8 8.8 97 0.2 S 17 20 9 11 1019.7 1019.7 0.0
24/02:30am 9.4 6.3 8.9 97 0.2 S 15 20 8 11 1020.3 1020.3 0.0
24/02:00am 9.5 6.4 8.9 96 0.3 S 15 19 8 10 1020.5 1020.5 0.0
24/01:55am 9.6 6.9 9.0 96 0.3 S 13 19 7 10 1020.6 1020.6 0.0
24/01:47am 9.8 6.8 9.2 96 0.3 S 15 19 8 10 1020.7 1020.7 0.0
24/01:30am 10.5 8.1 9.9 96 0.3 SSE 13 19 7 10 1020.9 1020.9 0.0
24/01:13am 10.4 7.9 9.8 96 0.3 S 13 17 7 9 1021.1 1021.1 0.0
24/01:00am 10.4 8.3 9.8 96 0.3 S 11 15 6 8 1021.3 1021.3 0.0
24/12:30am 10.7 8.7 10.1 96 0.3 S 11 15 6 8 1021.7 1021.7 0.0
24/12:00am 11.1 9.1 10.3 95 0.4 S 11 15 6 8 1021.7 1021.7 0.0
 
Date/Time
EST
Temp
°C
App
Temp
°C
Dew
Point
Rel
Hum
%
Delta-T
°C
Wind Press
QNH
hPa
Press
MSL
hPa
Rain
since 9 am
mm
Dir
 
Spd
km/h
Gust
km/h
Spd
kts
Gust
kts
23/11:45pm 11.3 9.4 10.5 95 0.4 S 11 13 6 7 1021.8 1021.8 0.0
23/11:30pm 11.2 10.0 10.4 95 0.4 S 7 9 4 5 1022.0 1022.0 0.0
23/11:00pm 10.8 9.1 10.0 95 0.4 SSE 9 13 5 7 1022.2 1022.2 0.0
23/10:30pm 10.6 8.5 9.8 95 0.4 S 11 13 6 7 1022.4 1022.4 0.0
23/10:00pm 10.6 8.5 9.8 95 0.4 SSE 11 13 6 7 1022.5 1022.5 0.0
23/09:40pm 10.5 8.4 9.7 95 0.4 SSE 11 13 6 7 1022.7 1022.7 0.0
23/09:30pm 10.3 7.7 9.5 95 0.4 S 13 15 7 8 1022.6 1022.6 0.0
23/09:21pm 9.5 6.7 8.7 95 0.4 S 13 15 7 8 1022.7 1022.7 0.0
23/09:00pm 8.9 6.0 8.0 94 0.4 S 13 13 7 7 1022.6 1022.6 0.0
23/08:56pm 8.8 6.2 7.9 94 0.4 S 11 13 6 7 1022.7 1022.7 0.0
23/08:30pm 8.9 7.1 7.8 93 0.5 SE 7 9 4 5 1022.9 1022.9 0.0
23/08:00pm 9.4 7.7 8.3 93 0.5 SE 7 9 4 5 1022.9 1022.9 0.0
23/07:36pm 9.9 8.3 8.7 92 0.6 SE 7 9 4 5 1022.9 1022.9 0.0
23/07:30pm 9.9 8.3 8.7 92 0.6 ESE 7 9 4 5 1022.9 1022.9 0.0
23/07:05pm 11.0 9.8 9.6 91 0.7 E 6 7 3 4 1022.9 1022.9 0.0
23/07:00pm 11.3 10.6 10.0 92 0.7 E 4 7 2 4 1022.9 1022.9 0.0
23/06:30pm 10.9 9.4 9.3 90 0.8 ENE 7 9 4 5 1022.6 1022.6 0.0
23/06:00pm 12.7 11.3 10.9 89 0.9 NNE 9 11 5 6 1022.9 1022.9 0.0
23/05:30pm 13.4 11.8 11.5 88 1.0 N 11 13 6 7 1022.9 1022.9 0.0
23/05:00pm 13.7 12.1 11.4 86 1.2 N 11 13 6 7 1023.0 1023.0 0.0
23/04:30pm 14.0 11.6 11.3 84 1.4 N 15 17 8 9 1022.9 1022.9 0.0
23/04:00pm 14.3 11.5 11.5 83 1.5 N 17 20 9 11 1022.9 1022.9 0.0
23/03:30pm 14.1 11.2 10.9 81 1.7 N 17 20 9 11 1023.2 1023.2 0.0
23/03:00pm 14.2 11.6 10.8 80 1.8 N 15 17 8 9 1023.6 1023.6 0.0
23/02:30pm 14.4 11.4 10.6 78 2.0 N 17 19 9 10 1023.9 1023.9 0.0
23/02:00pm 14.3 11.3 10.7 79 1.9 N 17 19 9 10 1024.4 1024.4 0.0
23/01:30pm 14.4 11.5 11.0 80 1.8 N 17 20 9 11 1024.8 1024.8 0.0
23/12:30pm 13.7 11.0 10.3 80 1.8 N 15 19 8 10 1025.4 1025.4 0.0
23/12:00pm 13.4 10.6 10.0 80 1.7 N 15 19 8 10 1025.7 1025.7 0.0
23/11:30am 13.5 11.0 9.6 77 2.0 N 13 15 7 8 1025.9 1025.9 0.0
23/11:00am 13.7 11.6 9.9 78 1.9 N 11 13 6 7 1026.3 1026.3 0.0
23/10:30am 13.1 11.3 9.4 78 1.9 N 9 13 5 7 1026.7 1026.7 0.0
23/10:00am 13.3 11.1 9.5 78 1.9 N 11 15 6 8 1026.9 1026.9 0.0
23/09:30am 13.2 12.0 9.6 79 1.8 NNE 6 11 3 6 1027.1 1027.1 0.0
23/09:00am 12.8 13.0 10.5 86 1.2 CALM 0 6 0 3 1027.4 1027.4 0.0
23/08:30am 11.5 10.2 10.1 91 0.7 SSW 7 9 4 5 1027.4 1027.4 0.0
23/08:00am 10.4 8.6 9.5 94 0.4 S 9 13 5 7 1027.4 1027.4 0.0
23/07:30am 9.3 6.9 8.5 95 0.4 S 11 13 6 7 1027.5 1027.5 0.0
23/07:00am 7.6 4.8 6.9 95 0.3 S 11 13 6 7 1027.3 1027.3 0.0
23/06:30am 6.0 2.4 5.1 94 0.4 S 13 17 7 9 1027.2 1027.2 0.0
23/06:00am 6.0 2.4 5.1 94 0.4 S 13 15 7 8 1027.1 1027.1 0.0
23/05:30am 5.9 2.3 5.0 94 0.4 S 13 13 7 7 1026.9 1026.9 0.0
23/05:00am 5.7 2.4 4.7 93 0.4 S 11 11 6 6 1026.9 1026.9 0.0
23/04:30am 7.0 4.7 5.9 93 0.5 S 7 11 4 6 1027.0 1027.0 0.0
23/04:00am 6.8 3.7 5.6 92 0.5 S 11 13 6 7 1026.7 1026.7 0.0
23/03:30am 6.8 3.7 5.6 92 0.5 S 11 13 6 7 1026.6 1026.6 0.0
23/03:00am 6.8 3.6 5.3 90 0.7 SSE 11 13 6 7 1026.6 1026.6 0.0
23/02:30am 7.0 4.2 5.2 88 0.8 SSW 9 9 5 5 1026.9 1026.9 0.0
23/02:13am 7.9 5.6 5.7 86 1.0 WSW 7 9 4 5 1027.1 1027.1 0.0
23/02:00am 9.1 7.6 6.9 86 1.0 WSW 4 7 2 4 1027.2 1027.2 0.0
23/01:30am 10.1 8.8 7.5 84 1.2 WSW 4 6 2 3 1027.5 1027.5 0.0
23/01:16am 10.6 8.8 8.0 84 1.3 WSW 7 9 4 5 1027.7 1027.7 0.0
23/01:00am 10.8 9.2 8.2 84 1.3 WSW 6 9 3 5 1027.8 1027.8 0.0
23/12:30am 10.7 9.0 8.3 85 1.2 WSW 7 11 4 6 1027.8 1027.8 0.0
23/12:00am 10.9 8.4 8.1 83 1.4 W 11 15 6 8 1027.7 1027.7 0.0
 
Date/Time
EST
Temp
°C
App
Temp
°C
Dew
Point
Rel
Hum
%
Delta-T
°C
Wind Press
QNH
hPa
Press
MSL
hPa
Rain
since 9 am
mm
Dir
 
Spd
km/h
Gust
km/h
Spd
kts
Gust
kts
22/11:30pm 11.0 8.4 7.9 81 1.5 NW 11 19 6 10 1027.6 1027.6 0.0
22/11:00pm 11.7 8.9 8.7 82 1.5 NW 13 17 7 9 1027.9 1027.9 0.0
22/10:47pm 11.6 8.4 8.5 81 1.5 NW 15 19 8 10 1027.9 1027.9 0.0
22/10:30pm 11.4 7.8 8.3 81 1.5 NNW 17 24 9 13 1027.9 1027.9 0.0
22/10:00pm 11.9 9.1 8.7 81 1.6 NW 13 19 7 10 1028.0 1028.0 0.0
22/09:30pm 12.1 9.1 9.1 82 1.5 NW 15 19 8 10 1028.2 1028.2 0.0
22/09:00pm 12.1 9.1 9.3 83 1.4 WNW 15 20 8 11 1028.0 1028.0 0.0
22/08:30pm 12.0 8.7 9.7 86 1.2 NW 17 20 9 11 1027.9 1027.9 0.0
22/08:00pm 11.5 8.1 9.1 85 1.2 NW 17 19 9 10 1027.6 1027.6 0.0
22/07:54pm 11.5 8.1 9.1 85 1.2 NW 17 20 9 11 1027.7 1027.7 0.0
22/07:30pm 11.5 7.7 9.1 85 1.2 NW 19 22 10 12 1027.5 1027.5 0.0
22/07:00pm 11.4 8.7 9.0 85 1.2 NW 13 20 7 11 1027.2 1027.2 0.0
22/06:30pm 11.6 7.7 8.8 83 1.4 NW 19 24 10 13 1027.0 1027.0 0.0
22/06:00pm 11.8 7.7 8.8 82 1.5 NW 20 24 11 13 1026.9 1026.9 0.0
22/05:30pm 12.2 7.8 9.0 81 1.6 NW 22 26 12 14 1026.9 1026.9 0.0
22/05:00pm 13.1 8.8 9.5 79 1.8 NW 22 28 12 15 1026.8 1026.8 0.0
22/04:30pm 13.3 9.0 9.5 78 1.9 NW 22 26 12 14 1026.9 1026.9 0.0
22/04:00pm 13.6 9.0 9.6 77 2.0 NW 24 28 13 15 1026.9 1026.9 0.0
22/03:30pm 13.6 9.3 9.5 76 2.1 NW 22 28 12 15 1027.0 1027.0 0.0
22/03:00pm 13.7 9.1 9.6 76 2.1 NNW 24 30 13 16 1027.2 1027.2 0.0
22/02:30pm 13.5 9.2 9.4 76 2.1 NNW 22 26 12 14 1027.4 1027.4 0.0
22/02:00pm 13.6 9.4 9.8 78 1.9 NNW 22 26 12 14 1027.6 1027.6 0.0
22/01:30pm 13.2 9.5 9.3 77 2.0 NNW 19 24 10 13 1027.8 1027.8 0.0
22/01:00pm 13.1 9.3 9.2 77 2.0 NNW 19 22 10 12 1027.9 1027.9 0.0
22/12:30pm 13.3 10.4 9.7 79 1.8 NNW 15 19 8 10 1028.2 1028.2 0.0
22/12:00pm 12.6 9.5 8.9 78 1.8 NNW 15 19 8 10 1028.6 1028.6 0.0
22/11:30am 12.7 9.7 9.2 79 1.8 N 15 20 8 11 1028.7 1028.7 0.0
22/11:08am 12.7 9.7 9.2 79 1.8 N 15 19 8 10 1028.8 1028.8 0.0
22/11:00am 12.6 10.3 8.9 78 1.8 N 11 15 6 8 1028.9 1028.9 0.0
22/10:30am 12.1 10.5 8.8 80 1.6 N 7 13 4 7 1029.3 1029.3 0.0
22/10:00am 12.0 10.0 8.8 81 1.6 N 9 15 5 8 1029.6 1029.6 0.0
22/09:30am 13.3 12.6 11.5 89 1.0 NE 6 9 3 5 1029.6 1029.6 0.0
22/09:00am 11.6 10.1 10.5 93 0.6 NE 9 15 5 8 1029.7 1029.7 0.0
22/08:30am 10.7 9.0 9.9 95 0.4 S 9 11 5 6 1029.7 1029.7 0.0
22/08:00am 9.9 7.6 9.1 95 0.4 S 11 15 6 8 1029.6 1029.6 0.0
22/07:30am 9.0 6.1 8.2 95 0.4 S 13 17 7 9 1029.4 1029.4 0.0
22/07:00am 7.9 4.8 7.1 95 0.4 S 13 15 7 8 1029.3 1029.3 0.0
22/06:30am 8.5 5.5 7.7 95 0.4 S 13 15 7 8 1029.3 1029.3 0.0
22/06:00am 8.1 4.6 7.2 94 0.4 S 15 17 8 9 1029.1 1029.1 0.0
22/05:30am 7.4 4.1 6.5 94 0.4 S 13 15 7 8 1028.9 1028.9 0.0
22/05:00am 6.5 3.0 5.6 94 0.4 SSE 13 15 7 8 1028.8 1028.8 0.0
22/04:30am 5.6 1.9 4.7 94 0.4 SSE 13 15 7 8 1028.4 1028.4 0.0
22/04:11am 5.7 1.7 4.8 94 0.4 S 15 17 8 9 1028.2 1028.2 0.0
22/04:00am 5.8 2.2 4.8 93 0.4 S 13 15 7 8 1028.1 1028.1 0.0
22/03:30am 6.2 2.7 5.3 94 0.4 S 13 15 7 8 1027.6 1027.6 0.0
22/03:00am 6.3 2.0 5.3 93 0.4 S 17 19 9 10 1027.8 1027.8 0.0
22/02:30am 6.4 2.5 5.4 93 0.4 S 15 17 8 9 1027.9 1027.9 0.0
22/02:00am 6.6 3.5 5.6 93 0.4 S 11 13 6 7 1028.0 1028.0 0.0
22/01:30am 7.0 3.2 5.9 93 0.5 S 15 17 8 9 1028.2 1028.2 0.0
22/01:00am 7.1 3.7 5.9 92 0.5 S 13 15 7 8 1028.3 1028.3 0.0
22/12:30am 6.6 3.4 5.2 91 0.6 SSE 11 13 6 7 1028.5 1028.5 0.0
22/12:00am 7.9 5.4 6.5 91 0.6 S 9 13 5 7 1028.5 1028.5 0.0
 
Date/Time
EST
Temp
°C
App
Temp
°C
Dew
Point
Rel
Hum
%
Delta-T
°C
Wind Press
QNH
hPa
Press
MSL
hPa
Rain
since 9 am
mm
Dir
 
Spd
km/h
Gust
km/h
Spd
kts
Gust
kts
21/11:30pm 8.8 6.1 7.4 91 0.7 S 11 13 6 7 1028.5 1028.5 0.0
21/11:00pm 8.6 5.8 7.1 90 0.7 S 11 13 6 7 1028.4 1028.4 0.0
21/10:30pm 8.9 6.2 7.4 90 0.7 SSE 11 15 6 8 1028.3 1028.3 0.0
21/10:00pm 9.6 7.1 8.0 90 0.8 SSE 11 13 6 7 1028.4 1028.4 0.0
21/09:30pm 10.1 7.3 8.4 89 0.8 S 13 15 7 8 1028.4 1028.4 0.0
21/09:00pm 9.9 7.0 8.2 89 0.8 S 13 15 7 8 1028.3 1028.3 0.0
21/08:30pm 9.9 7.7 8.0 88 0.9 S 9 11 5 6 1028.3 1028.3 0.0
21/08:00pm 9.6 7.7 7.4 86 1.0 ESE 7 9 4 5 1027.9 1027.9 0.0
21/07:30pm 10.3 8.4 7.5 83 1.3 E 7 11 4 6 1027.7 1027.7 0.0
21/07:00pm 11.0 9.4 7.9 81 1.5 NE 6 7 3 4 1027.5 1027.5 0.0
21/06:30pm 12.6 12.0 8.9 78 1.9 NNW 2 7 1 4 1027.2 1027.2 0.0
21/06:00pm 13.9 12.8 10.1 78 2.0 WNW 6 13 3 7 1027.0 1027.0 0.0
21/05:30pm 14.3 11.3 10.7 79 1.9 NNW 17 19 9 10 1026.7 1026.7 0.0
21/05:00pm 14.4 11.4 10.6 78 2.0 N 17 20 9 11 1026.6 1026.6 0.0
21/04:30pm 15.9 12.8 10.4 70 2.9 NNW 17 20 9 11 1026.5 1026.5 0.0
21/04:00pm 16.2 13.3 10.9 71 2.8 NNW 17 22 9 12 1026.5 1026.5 0.0
21/03:30pm 15.8 12.8 10.6 71 2.8 NNW 17 24 9 13 1026.4 1026.4 0.0
21/03:00pm 16.1 13.0 10.2 68 3.1 NNW 17 22 9 12 1026.6 1026.6 0.0
21/02:30pm 16.1 13.7 10.2 68 3.1 NNW 13 17 7 9 1026.8 1026.8 0.0
21/02:00pm 16.3 14.0 10.4 68 3.1 N 13 15 7 8 1026.8 1026.8 0.0
21/01:30pm 17.0 14.6 9.9 63 3.7 N 13 15 7 8 1027.0 1027.0 0.0
21/01:00pm 16.5 13.7 8.7 60 4.0 N 13 17 7 9 1027.0 1027.0 0.0
21/12:30pm 16.2 14.0 9.4 64 3.5 N 11 13 6 7 1027.3 1027.3 0.0
21/12:00pm 15.2 12.7 11.2 77 2.1 N 15 19 8 10 1027.7 1027.7 0.0
21/11:30am 14.7 11.4 10.9 78 2.0 NNW 19 24 10 13 1027.8 1027.8 0.0
21/11:00am 14.0 10.3 10.2 78 2.0 NNW 20 26 11 14 1028.1 1028.1 0.0
21/10:30am 14.0 9.9 10.0 77 2.1 NNW 22 28 12 15 1028.3 1028.3 0.0

Other Formats:

Comma delimited format used in spreadsheet applications
http://www.bom.gov.au/fwo/IDT60801/IDT60801.95960.axf

JavaScript Object Notation format (JSON) in row-major order
http://www.bom.gov.au/fwo/IDT60801/IDT60801.95960.json